Time;durP1;ratioP1;P1;durP2;ratioP2;P2;SDS_P1;SDS_P2;PMS_P1;PMS_P2;Temp;Humidity;BMP_temperature;BMP_pressure;BME280_temperature;BME280_humidity;BME280_pressure;Samples;Min_cycle;Max_cycle;Signal;HPM_P1;HPM_P2
2023/01/10 00:01:52;;;;;;;24.40;11.27;;;;;;;8.96;80.87;98624.47;5072811;28;20215;-89
2023/01/10 00:04:17;;;;;;;29.57;12.20;;;;;;;8.89;82.11;98618.72;5072454;28;20238;-89
2023/01/10 00:06:42;;;;;;;29.10;11.33;;;;;;;9.04;81.80;98622.28;5072424;28;20183;-88
2023/01/10 00:09:10;;;;;;;23.67;10.77;;;;;;;9.16;82.04;98609.38;5072973;28;20177;-89
2023/01/10 00:14:19;;;;;;;19.97;8.97;;;;;;;9.28;81.79;98607.84;5076635;28;20191;-88
2023/01/10 00:16:45;;;;;;;24.60;10.43;;;;;;;9.34;81.97;98607.50;5076277;28;20173;-88
2023/01/10 00:19:10;;;;;;;19.70;9.33;;;;;;;9.42;81.42;98607.94;5075954;28;20165;-88
2023/01/10 00:21:36;;;;;;;20.13;10.47;;;;;;;9.64;80.99;98611.00;5076159;28;20184;-88
2023/01/10 00:24:21;;;;;;;25.00;10.30;;;;;;;9.86;79.90;98605.38;5075871;28;20180;-88
2023/01/10 00:26:51;;;;;;;24.40;10.77;;;;;;;10.03;79.10;98588.69;5076158;28;20214;-88
2023/01/10 00:29:20;;;;;;;22.30;9.83;;;;;;;10.13;78.48;98587.25;5076073;28;20180;-88
2023/01/10 00:31:47;;;;;;;21.93;9.83;;;;;;;10.21;77.64;98585.88;5075944;28;20201;-88
2023/01/10 00:34:12;;;;;;;20.20;9.47;;;;;;;10.26;77.21;98578.56;5075705;28;20176;-88
2023/01/10 00:36:38;;;;;;;17.17;7.83;;;;;;;10.36;76.08;98590.19;5074718;28;20181;-88
2023/01/10 00:39:03;;;;;;;21.13;10.27;;;;;;;10.26;76.62;98589.06;5075490;28;20197;-88
2023/01/10 00:44:13;;;;;;;24.30;10.43;;;;;;;10.29;76.06;98573.16;5076136;28;20167;-88
2023/01/10 00:46:38;;;;;;;21.73;9.37;;;;;;;10.21;77.26;98570.16;5075523;28;20165;-88
2023/01/10 00:49:07;;;;;;;23.17;9.67;;;;;;;10.33;76.42;98566.78;5075482;28;20230;-88
2023/01/10 00:51:32;;;;;;;20.17;8.97;;;;;;;10.37;76.22;98560.44;5075888;28;20192;-88
2023/01/10 00:53:58;;;;;;;13.00;7.07;;;;;;;10.57;75.78;98555.75;5075619;28;20641;-88
2023/01/10 00:56:23;;;;;;;17.43;8.70;;;;;;;10.49;75.39;98543.97;5075562;28;20161;-88
2023/01/10 00:58:49;;;;;;;17.07;8.53;;;;;;;10.57;75.68;98545.25;5075792;28;20222;-88
2023/01/10 01:01:14;;;;;;;17.07;8.30;;;;;;;10.69;75.35;98555.00;5074506;28;20173;-88
2023/01/10 01:03:39;;;;;;;17.90;7.70;;;;;;;10.89;74.65;98550.19;5074502;28;20188;-88
2023/01/10 01:06:06;;;;;;;15.87;8.07;;;;;;;10.86;74.86;98539.03;5075090;28;20176;-88
2023/01/10 01:08:32;;;;;;;17.07;7.90;;;;;;;11.04;74.18;98537.88;5075614;28;20627;-88
2023/01/10 01:10:57;;;;;;;15.33;8.90;;;;;;;11.10;74.39;98529.63;5073991;28;20193;-88
2023/01/10 01:13:23;;;;;;;15.20;7.77;;;;;;;11.05;74.79;98515.97;5074275;28;20181;-88
2023/01/10 01:15:49;;;;;;;16.73;9.03;;;;;;;11.01;74.77;98514.47;5075170;28;20246;-88
2023/01/10 01:18:17;;;;;;;16.47;7.90;;;;;;;11.11;74.43;98521.63;5075430;28;20197;-88
2023/01/10 01:20:44;;;;;;;16.87;8.00;;;;;;;11.02;74.22;98498.66;5074752;28;20662;-88
2023/01/10 01:23:10;;;;;;;12.80;7.93;;;;;;;11.06;74.64;98497.50;5074022;28;20177;-88
2023/01/10 01:25:35;;;;;;;13.73;6.53;;;;;;;10.98;74.95;98499.75;5074678;28;20169;-88
2023/01/10 01:28:01;;;;;;;13.83;7.40;;;;;;;11.19;75.52;98487.03;5074680;28;20249;-89
2023/01/10 01:30:26;;;;;;;14.70;7.50;;;;;;;11.18;75.82;98490.63;5074826;28;20199;-88
2023/01/10 01:32:52;;;;;;;17.97;8.37;;;;;;;11.10;76.67;98485.03;5073595;28;20205;-88
2023/01/10 01:35:17;;;;;;;14.63;7.67;;;;;;;11.14;76.54;98470.75;5074494;28;20640;-88
2023/01/10 01:37:43;;;;;;;19.63;7.83;;;;;;;11.37;75.89;98470.09;5074548;28;20532;-88
2023/01/10 01:40:16;;;;;;;16.50;7.77;;;;;;;11.41;75.66;98468.13;5074425;28;20526;-88
2023/01/10 01:42:42;;;;;;;16.83;8.77;;;;;;;11.55;74.33;98473.28;5074918;28;20165;-88
2023/01/10 01:45:07;;;;;;;17.23;8.53;;;;;;;11.63;74.51;98471.81;5074307;28;20175;-89
2023/01/10 01:47:53;;;;;;;13.73;7.40;;;;;;;11.75;74.39;98458.84;5073309;28;20182;-88
2023/01/10 01:50:26;;;;;;;18.03;8.63;;;;;;;11.81;74.65;98459.28;5073023;28;20567;-88
2023/01/10 01:52:56;;;;;;;17.27;9.40;;;;;;;11.92;74.24;98458.53;5074417;28;20160;-88
2023/01/10 01:55:25;;;;;;;15.87;8.10;;;;;;;11.99;74.12;98457.16;5074120;28;20180;-88
2023/01/10 01:57:53;;;;;;;17.37;8.03;;;;;;;11.99;74.38;98452.75;5074046;28;20221;-88
2023/01/10 02:00:19;;;;;;;17.30;7.60;;;;;;;12.00;74.63;98443.91;5073960;28;20176;-88
2023/01/10 02:02:55;;;;;;;17.87;8.13;;;;;;;11.86;75.25;98432.69;5072950;28;20176;-88
2023/01/10 02:05:23;;;;;;;18.40;7.80;;;;;;;11.86;75.38;98437.94;5073919;28;20175;-88
2023/01/10 02:07:52;;;;;;;14.47;7.30;;;;;;;11.94;74.81;98438.25;5073187;28;20176;-88
2023/01/10 02:10:31;;;;;;;13.00;7.20;;;;;;;11.92;74.94;98438.38;5072746;28;20592;-88
2023/01/10 02:13:01;;;;;;;17.07;7.43;;;;;;;11.83;75.83;98432.91;5073123;28;20270;-88
2023/01/10 02:15:27;;;;;;;21.10;9.23;;;;;;;11.89;75.57;98435.13;5073348;28;20233;-88
2023/01/10 02:17:53;;;;;;;27.13;11.27;;;;;;;11.70;76.02;98431.13;5073891;28;20180;-88
2023/01/10 02:20:21;;;;;;;18.00;9.17;;;;;;;11.59;76.08;98441.47;5073484;28;20183;-88
2023/01/10 02:22:53;;;;;;;15.87;8.83;;;;;;;11.65;75.33;98438.44;5074146;28;20531;-88
2023/01/10 02:25:43;;;;;;;19.87;9.20;;;;;;;11.58;75.57;98431.91;5074073;28;20721;-88
2023/01/10 02:28:46;;;;;;;14.73;7.67;;;;;;;11.36;77.07;98431.69;5072830;28;20180;-88
2023/01/10 02:31:18;;;;;;;18.73;8.77;;;;;;;11.49;76.72;98443.03;5072665;28;20730;-88
2023/01/10 02:33:50;;;;;;;22.87;10.27;;;;;;;11.52;75.68;98432.34;5072690;28;20167;-87
2023/01/10 02:37:03;;;;;;;18.30;8.37;;;;;;;11.35;76.85;98422.13;5073695;28;20162;-87
2023/01/10 02:39:41;;;;;;;16.93;9.13;;;;;;;11.49;76.32;98415.97;5071778;28;20259;-87
2023/01/10 02:42:10;;;;;;;25.87;10.30;;;;;;;11.29;76.82;98413.84;5073337;28;20202;-87
2023/01/10 02:45:03;;;;;;;19.60;9.40;;;;;;;11.04;77.56;98404.97;5073290;28;20620;-88
2023/01/10 02:47:37;;;;;;;22.60;10.20;;;;;;;11.24;74.79;98401.00;5073274;28;20177;-88
2023/01/10 02:50:22;;;;;;;38.80;13.67;;;;;;;11.37;73.86;98430.72;5073550;28;20246;-87
2023/01/10 02:52:48;;;;;;;49.13;16.00;;;;;;;11.28;71.45;98433.97;5072434;28;20250;-88
2023/01/10 02:55:14;;;;;;;48.50;16.53;;;;;;;11.31;70.44;98412.81;5072184;28;20174;-88
2023/01/10 02:58:00;;;;;;;44.00;17.23;;;;;;;11.33;70.42;98413.53;5073146;28;20623;-87
2023/01/10 03:00:41;;;;;;;44.07;16.70;;;;;;;11.27;68.64;98392.94;5072452;28;20267;-87
2023/01/10 03:03:12;;;;;;;44.97;17.20;;;;;;;11.22;68.32;98399.44;5073009;28;20260;-87
2023/01/10 03:06:01;;;;;;;60.63;19.10;;;;;;;10.91;68.84;98404.09;5073396;28;20157;-88
2023/01/10 03:08:38;;;;;;;59.07;20.97;;;;;;;10.80;68.93;98397.88;5072117;28;20222;-87
2023/01/10 03:11:06;;;;;;;66.50;21.97;;;;;;;10.65;68.88;98396.25;5072887;28;20216;-87
2023/01/10 03:13:51;;;;;;;70.47;21.00;;;;;;;10.61;69.12;98400.00;5072200;28;20212;-87
2023/01/10 03:16:22;;;;;;;60.27;19.60;;;;;;;10.53;68.90;98394.41;5072019;28;20223;-88
2023/01/10 03:18:53;;;;;;;53.67;18.47;;;;;;;10.46;69.25;98376.47;5072961;28;20171;-88
2023/01/10 03:21:21;;;;;;;62.27;20.27;;;;;;;10.33;70.23;98380.81;5073270;28;20169;-87
2023/01/10 03:23:49;;;;;;;52.03;19.60;;;;;;;10.29;70.58;98397.66;5072906;28;20173;-87
2023/01/10 03:26:18;;;;;;;60.23;20.20;;;;;;;10.31;70.84;98381.84;5072850;28;20174;-88
2023/01/10 03:29:02;;;;;;;59.63;19.70;;;;;;;10.25;70.79;98387.47;5072731;28;20204;-88
2023/01/10 03:31:34;;;;;;;65.60;22.03;;;;;;;10.15;70.52;98404.69;5072806;28;20719;-87
2023/01/10 03:34:00;;;;;;;77.03;23.93;;;;;;;10.17;70.81;98395.81;5071827;28;20606;-87
2023/01/10 03:36:57;;;;;;;58.07;19.77;;;;;;;9.94;71.18;98390.28;5073015;28;20208;-87
2023/01/10 03:39:40;;;;;;;71.17;21.07;;;;;;;9.97;71.23;98401.41;5072630;28;20195;-88
2023/01/10 03:42:22;;;;;;;57.40;19.07;;;;;;;9.65;72.02;98403.38;5073237;28;20153;-88
2023/01/10 03:45:12;;;;;;;48.37;16.77;;;;;;;9.36;73.80;98390.34;5073257;28;20240;-88
2023/01/10 03:47:44;;;;;;;60.33;19.77;;;;;;;9.19;75.16;98379.13;5075679;28;20534;-88
2023/01/10 03:50:17;;;;;;;44.10;16.23;;;;;;;9.19;75.29;98380.91;5076571;28;20206;-88
2023/01/10 03:52:43;;;;;;;73.83;21.70;;;;;;;9.07;76.48;98382.44;5075522;28;20550;-88
2023/01/10 03:55:11;;;;;;;47.30;18.10;;;;;;;9.09;76.17;98380.59;5075999;28;20548;-88
2023/01/10 03:57:36;;;;;;;54.10;17.70;;;;;;;8.79;77.03;98384.97;5076676;28;20184;-88
2023/01/10 04:00:03;;;;;;;63.57;20.47;;;;;;;8.96;76.77;98425.84;5075359;28;20183;-87
2023/01/10 04:02:30;;;;;;;62.67;20.43;;;;;;;8.72;77.37;98396.72;5076837;28;20281;-88
2023/01/10 04:04:56;;;;;;;40.87;17.30;;;;;;;8.57;77.73;98384.50;5076272;28;20169;-88
2023/01/10 04:07:22;;;;;;;48.63;15.53;;;;;;;8.09;80.05;98351.53;5075301;28;20182;-89
2023/01/10 04:09:47;;;;;;;74.33;24.33;;;;;;;7.87;81.74;98395.34;5076429;28;20191;-87
2023/01/10 04:12:13;;;;;;;74.50;24.17;;;;;;;8.05;81.89;98387.38;5075346;28;20653;-87
2023/01/10 04:14:38;;;;;;;72.70;21.03;;;;;;;8.11;81.69;98401.00;5075388;28;20184;-87
2023/01/10 04:17:04;;;;;;;54.97;19.13;;;;;;;8.27;80.98;98370.56;5075047;28;20194;-88
2023/01/10 04:19:30;;;;;;;73.83;23.43;;;;;;;8.43;80.40;98382.69;5074996;28;20276;-87
2023/01/10 04:21:55;;;;;;;73.03;22.80;;;;;;;8.36;80.75;98376.09;5076260;28;20565;-88
2023/01/10 04:24:21;;;;;;;70.77;22.80;;;;;;;8.52;80.18;98370.88;5074979;28;20206;-88
2023/01/10 04:26:46;;;;;;;75.67;24.97;;;;;;;8.71;78.94;98360.22;5074908;28;20204;-88
2023/01/10 04:29:12;;;;;;;83.40;25.10;;;;;;;8.83;78.25;98357.75;5075841;28;20178;-88
2023/01/10 04:31:38;;;;;;;57.80;22.83;;;;;;;8.82;77.71;98343.00;5074742;28;20225;-88
2023/01/10 04:34:05;;;;;;;54.37;19.70;;;;;;;8.78;77.77;98356.34;5074799;28;20181;-88
2023/01/10 04:36:30;;;;;;;91.03;23.17;;;;;;;8.89;77.09;98339.09;5075729;28;20177;-88
2023/01/10 04:38:56;;;;;;;112.57;24.73;;;;;;;8.97;76.45;98356.94;5075750;28;20192;-87
2023/01/10 04:41:21;;;;;;;87.33;23.43;;;;;;;8.91;77.25;98360.75;5074664;28;20250;-88
2023/01/10 04:43:48;;;;;;;92.63;23.33;;;;;;;9.01;76.62;98369.75;5075595;28;20176;-88
2023/01/10 04:46:14;;;;;;;101.07;26.43;;;;;;;9.11;76.60;98365.69;5074601;28;20581;-88
2023/01/10 04:48:39;;;;;;;83.40;21.00;;;;;;;9.16;75.51;98352.31;5074530;28;20646;-88
2023/01/10 04:51:05;;;;;;;74.43;23.67;;;;;;;9.20;75.46;98354.66;5075889;28;20207;-88
2023/01/10 04:53:30;;;;;;;71.23;23.87;;;;;;;9.12;74.94;98349.03;5074704;28;20270;-88
2023/01/10 04:56:03;;;;;;;79.80;23.00;;;;;;;9.12;75.43;98353.41;5075635;28;20606;-87
2023/01/10 04:58:31;;;;;;;90.53;25.70;;;;;;;9.09;75.67;98349.22;5074549;28;20189;-88
2023/01/10 05:00:57;;;;;;;84.63;24.77;;;;;;;9.23;75.64;98353.63;5075269;28;20176;-88
2023/01/10 05:03:22;;;;;;;96.07;26.27;;;;;;;9.29;75.50;98355.88;5075198;28;20192;-88
2023/01/10 05:05:48;;;;;;;101.17;27.67;;;;;;;9.24;75.61;98366.63;5074191;28;20669;-88
2023/01/10 05:08:13;;;;;;;110.30;29.07;;;;;;;9.13;76.03;98369.03;5075137;28;20212;-88
2023/01/10 05:10:38;;;;;;;95.03;27.37;;;;;;;9.21;76.48;98366.81;5075531;28;20227;-88
2023/01/10 05:13:04;;;;;;;92.10;26.47;;;;;;;9.32;76.12;98362.72;5075014;28;20644;-88
2023/01/10 05:15:29;;;;;;;92.23;28.53;;;;;;;9.26;76.28;98371.75;5073985;28;20214;-88
2023/01/10 05:17:59;;;;;;;94.73;27.83;;;;;;;9.33;76.26;98364.41;5074928;28;20169;-88
2023/01/10 05:20:24;;;;;;;105.97;30.37;;;;;;;9.54;75.76;98365.72;5073867;28;20185;-88
2023/01/10 05:22:50;;;;;;;108.43;30.40;;;;;;;9.56;75.55;98356.00;5074164;28;20317;-88
2023/01/10 05:25:15;;;;;;;103.10;26.10;;;;;;;9.60;75.63;98342.63;5075310;28;20245;-88
2023/01/10 05:27:42;;;;;;;117.40;30.17;;;;;;;9.68;74.76;98350.88;5074031;28;20184;-88
2023/01/10 05:30:10;;;;;;;124.60;31.77;;;;;;;9.63;75.21;98352.06;5074555;28;20241;-88
2023/01/10 05:32:36;;;;;;;134.80;32.07;;;;;;;9.68;75.13;98356.09;5073560;28;20208;-88
2023/01/10 05:35:01;;;;;;;136.93;32.67;;;;;;;9.72;75.54;98362.81;5074529;28;20622;-88
2023/01/10 05:37:27;;;;;;;108.60;29.63;;;;;;;9.73;74.49;98354.03;5074493;28;20239;-88
2023/01/10 05:39:52;;;;;;;106.63;27.23;;;;;;;9.59;75.06;98350.59;5074500;28;20725;-88
2023/01/10 05:42:18;;;;;;;92.07;29.17;;;;;;;9.54;75.61;98327.31;5074035;28;20176;-88
2023/01/10 05:44:43;;;;;;;86.80;25.03;;;;;;;9.61;74.98;98314.72;5073675;28;20180;-88
2023/01/10 05:47:08;;;;;;;94.20;24.20;;;;;;;9.56;75.25;98312.38;5074860;28;20280;-88
2023/01/10 05:49:34;;;;;;;88.30;27.03;;;;;;;9.50;75.58;98335.44;5074568;28;20180;-88
2023/01/10 05:51:59;;;;;;;105.73;28.73;;;;;;;9.57;75.62;98353.28;5073489;28;20205;-88
2023/01/10 05:54:25;;;;;;;90.83;25.13;;;;;;;9.63;76.39;98378.25;5074751;28;20173;-88
2023/01/10 05:56:50;;;;;;;94.43;28.93;;;;;;;9.61;76.15;98359.19;5074360;28;20614;-87
2023/01/10 05:59:16;;;;;;;117.47;30.03;;;;;;;9.60;76.12;98353.09;5074214;28;20188;-88
2023/01/10 06:01:41;;;;;;;110.10;28.13;;;;;;;9.62;76.40;98347.75;5073027;28;20165;-88
2023/01/10 06:04:07;;;;;;;113.37;28.50;;;;;;;9.74;75.66;98334.78;5073070;28;20207;-88
2023/01/10 06:06:33;;;;;;;114.90;29.33;;;;;;;9.82;75.75;98322.06;5074455;28;20173;-88
2023/01/10 06:08:58;;;;;;;113.70;27.53;;;;;;;9.88;75.69;98320.81;5072737;28;20185;-88
2023/01/10 06:11:28;;;;;;;87.73;26.13;;;;;;;9.89;75.37;98318.13;5073788;28;20726;-88
2023/01/10 06:13:57;;;;;;;105.90;27.60;;;;;;;9.97;75.56;98309.78;5072816;28;20632;-88
2023/01/10 06:16:23;;;;;;;118.57;28.57;;;;;;;9.91;75.22;98310.16;5074010;28;20176;-88
2023/01/10 06:18:48;;;;;;;105.43;27.10;;;;;;;9.66;76.27;98294.34;5073731;28;20250;-88
2023/01/10 06:21:14;;;;;;;103.67;28.50;;;;;;;9.70;76.10;98295.81;5072703;28;20618;-88
2023/01/10 06:23:40;;;;;;;108.90;27.23;;;;;;;9.71;76.51;98287.03;5072705;28;20515;-88
2023/01/10 06:26:06;;;;;;;121.50;29.73;;;;;;;9.79;76.39;98284.78;5073890;28;20173;-88
2023/01/10 06:28:31;;;;;;;110.90;31.57;;;;;;;9.71;76.24;98271.34;5072584;28;20238;-88
2023/01/10 06:30:56;;;;;;;120.97;34.30;;;;;;;9.72;76.62;98270.41;5073053;28;20627;-88
2023/01/10 06:33:22;;;;;;;112.73;34.47;;;;;;;9.68;77.30;98282.00;5072539;28;20181;-88
2023/01/10 06:35:47;;;;;;;129.60;35.00;;;;;;;9.70;77.37;98278.34;5072471;28;20694;-88
2023/01/10 06:38:13;;;;;;;110.50;33.23;;;;;;;9.83;76.40;98287.09;5073208;28;20702;-88
2023/01/10 06:40:39;;;;;;;111.40;33.90;;;;;;;9.88;76.54;98289.41;5072756;28;20204;-88
2023/01/10 06:43:05;;;;;;;122.80;33.47;;;;;;;10.04;76.19;98295.38;5072377;28;20181;-88
2023/01/10 06:45:30;;;;;;;132.40;33.67;;;;;;;10.09;76.10;98288.06;5072664;28;20309;-88
2023/01/10 06:47:56;;;;;;;110.67;27.80;;;;;;;10.18;76.01;98284.03;5072342;28;20185;-88
2023/01/10 06:50:21;;;;;;;102.53;28.57;;;;;;;10.24;76.14;98281.03;5073185;28;20169;-88
2023/01/10 06:52:57;;;;;;;76.40;25.73;;;;;;;10.03;77.13;98280.63;5073263;28;20180;-88
2023/01/10 06:55:24;;;;;;;82.33;26.20;;;;;;;9.93;78.86;98292.63;5072250;28;20263;-88
2023/01/10 06:57:54;;;;;;;73.63;23.93;;;;;;;9.81;81.27;98295.97;5073429;28;20614;-88
2023/01/10 07:00:20;;;;;;;72.27;24.50;;;;;;;9.85;81.32;98285.22;5072780;28;20169;-88
2023/01/10 07:02:46;;;;;;;97.67;28.20;;;;;;;9.93;81.45;98282.13;5073085;28;20169;-88
2023/01/10 07:05:11;;;;;;;90.63;28.60;;;;;;;10.16;80.96;98278.06;5073384;28;20187;-88
2023/01/10 07:07:37;;;;;;;111.40;27.60;;;;;;;10.36;80.17;98280.22;5073062;28;20580;-88
2023/01/10 07:10:02;;;;;;;91.23;29.43;;;;;;;10.47;78.97;98273.38;5072052;28;20619;-88
2023/01/10 07:12:28;;;;;;;95.83;28.50;;;;;;;10.52;78.95;98278.28;5071927;28;20208;-88
2023/01/10 07:14:53;;;;;;;90.10;28.33;;;;;;;10.64;78.80;98263.56;5073280;28;20259;-88
2023/01/10 07:17:19;;;;;;;95.33;26.93;;;;;;;10.70;78.31;98265.75;5072354;28;20230;-88
2023/01/10 07:19:44;;;;;;;92.13;26.73;;;;;;;10.81;77.52;98256.22;5072025;28;20554;-88
2023/01/10 07:22:10;;;;;;;101.07;28.30;;;;;;;10.79;76.99;98263.38;5076874;28;20169;-88
2023/01/10 07:24:36;;;;;;;92.53;28.30;;;;;;;10.75;77.45;98256.63;5076376;28;20560;-88
2023/01/10 07:27:01;;;;;;;84.07;25.13;;;;;;;10.70;78.03;98244.78;5076107;28;20177;-88
2023/01/10 07:29:26;;;;;;;90.27;24.90;;;;;;;10.75;77.95;98221.72;5076015;28;20177;-88
2023/01/10 07:31:52;;;;;;;68.53;24.83;;;;;;;10.71;78.90;98226.34;5077104;28;20189;-88
2023/01/10 07:34:17;;;;;;;73.70;22.93;;;;;;;10.75;79.73;98214.69;5075929;28;20696;-88
2023/01/10 07:36:43;;;;;;;75.70;21.80;;;;;;;10.91;79.03;98207.47;5077403;28;20526;-88
2023/01/10 07:39:08;;;;;;;66.43;22.63;;;;;;;11.01;79.34;98205.03;5077524;28;20199;-88
2023/01/10 07:41:34;;;;;;;61.93;21.40;;;;;;;11.04;79.54;98200.44;5076318;28;20165;-88
2023/01/10 07:43:59;;;;;;;74.63;21.67;;;;;;;11.15;80.11;98201.47;5076494;28;20173;-88
2023/01/10 07:46:25;;;;;;;62.47;22.00;;;;;;;11.27;79.79;98201.44;5076691;28;20165;-88
2023/01/10 07:48:50;;;;;;;71.60;22.90;;;;;;;11.32;80.36;98195.91;5077399;28;20180;-88
2023/01/10 07:51:16;;;;;;;66.00;23.27;;;;;;;11.12;81.38;98197.28;5075570;28;20284;-88
2023/01/10 07:53:41;;;;;;;69.93;24.30;;;;;;;11.32;81.86;98194.09;5075847;28;20551;-87
2023/01/10 07:56:07;;;;;;;80.13;24.90;;;;;;;11.49;81.47;98185.88;5075475;28;20625;-88
2023/01/10 07:58:32;;;;;;;60.67;22.23;;;;;;;11.61;81.27;98174.50;5076399;28;20174;-88
2023/01/10 08:01:01;;;;;;;70.23;22.87;;;;;;;11.68;81.65;98169.66;5076658;28;20680;-88
2023/01/10 08:03:26;;;;;;;66.57;24.00;;;;;;;11.84;80.63;98169.41;5076553;28;20234;-88
2023/01/10 08:06:18;;;;;;;64.40;22.50;;;;;;;11.77;80.69;98168.16;5075235;28;20182;-88
2023/01/10 08:08:43;;;;;;;60.67;21.87;;;;;;;11.64;82.06;98173.44;5075917;28;20188;-88
2023/01/10 08:11:09;;;;;;;54.23;21.90;;;;;;;11.69;82.89;98164.31;5075078;28;20214;-88
2023/01/10 08:13:34;;;;;;;60.97;21.57;;;;;;;11.99;81.63;98163.88;5076647;28;20182;-88
2023/01/10 08:16:04;;;;;;;57.07;19.63;;;;;;;12.17;81.02;98151.16;5076932;28;20173;-88
2023/01/10 08:18:30;;;;;;;70.00;21.90;;;;;;;12.18;80.96;98145.81;5075405;28;20171;-88
2023/01/10 08:20:55;;;;;;;65.17;20.57;;;;;;;12.00;82.29;98146.34;5075973;28;20246;-88
2023/01/10 08:23:21;;;;;;;49.97;20.13;;;;;;;12.02;81.78;98147.06;5075513;28;20619;-88
2023/01/10 08:25:47;;;;;;;74.97;25.43;;;;;;;12.07;80.45;98145.75;5075205;28;20202;-89
2023/01/10 08:28:13;;;;;;;83.97;26.93;;;;;;;12.18;80.02;98153.69;5076180;28;20166;-89
2023/01/10 08:30:39;;;;;;;79.20;25.00;;;;;;;12.23;79.47;98150.72;5074924;28;20230;-88
2023/01/10 08:33:06;;;;;;;55.33;19.87;;;;;;;12.32;78.84;98144.75;5076024;28;20171;-89
2023/01/10 08:35:37;;;;;;;55.67;19.10;;;;;;;12.19;80.02;98144.00;5075775;28;20175;-89
2023/01/10 08:38:03;;;;;;;56.40;17.47;;;;;;;12.09;81.33;98140.38;5075613;28;20191;-89
2023/01/10 08:40:28;;;;;;;60.37;19.00;;;;;;;12.07;82.20;98126.53;5075697;28;20182;-88
2023/01/10 08:43:03;;;;;;;69.00;21.00;;;;;;;11.94;83.02;98120.53;5075610;28;20519;-88
2023/01/10 08:45:29;;;;;;;45.53;17.53;;;;;;;11.80;84.20;98113.66;5075895;28;20405;-88
2023/01/10 08:47:55;;;;;;;58.27;19.93;;;;;;;11.71;85.49;98107.28;5075540;28;20536;-89
2023/01/10 08:50:21;;;;;;;50.27;18.13;;;;;;;11.49;87.31;98107.16;5075429;28;20177;-89
2023/01/10 08:52:46;;;;;;;47.30;18.60;;;;;;;11.18;90.00;98097.19;5074512;28;20645;-88
2023/01/10 08:55:12;;;;;;;55.37;16.90;;;;;;;11.23;91.00;98076.72;5075438;28;20186;-87
2023/01/10 08:57:37;;;;;;;33.70;14.70;;;;;;;11.20;92.90;98076.94;5074368;28;20179;-88
2023/01/10 09:00:04;;;;;;;32.77;13.73;;;;;;;11.23;93.38;98084.59;5075324;28;20187;-88
2023/01/10 09:02:30;;;;;;;28.93;13.07;;;;;;;11.46;91.87;98068.03;5075729;28;20648;-88
2023/01/10 09:04:55;;;;;;;33.10;13.33;;;;;;;11.54;92.06;98068.28;5075073;28;20190;-87
2023/01/10 09:07:20;;;;;;;27.43;14.03;;;;;;;11.40;92.40;98060.59;5075205;28;20649;-89
2023/01/10 09:09:46;;;;;;;29.93;11.13;;;;;;;11.26;92.75;98042.41;5074457;28;20576;-87
2023/01/10 09:14:56;;;;;;;27.80;13.63;;;;;;;11.36;93.78;98034.69;5075876;28;20280;-87
2023/01/10 09:17:21;;;;;;;26.67;12.40;;;;;;;11.55;91.60;98046.38;5075276;28;20344;-89
2023/01/10 09:19:47;;;;;;;39.40;18.43;;;;;;;11.71;90.94;98043.47;5074329;28;20189;-88
2023/01/10 09:22:12;;;;;;;31.43;12.23;;;;;;;11.56;92.02;98050.66;5073951;28;20197;-88
2023/01/10 09:24:38;;;;;;;21.20;11.93;;;;;;;11.62;92.35;98047.56;5074223;28;20187;-88
2023/01/10 09:27:04;;;;;;;23.20;13.10;;;;;;;11.52;92.53;98037.88;5073852;28;20274;-88
2023/01/10 09:29:29;;;;;;;24.20;11.43;;;;;;;11.55;93.22;98032.41;5074772;28;20192;-88
2023/01/10 09:31:55;;;;;;;28.47;11.77;;;;;;;11.35;94.48;98028.59;5074604;28;20208;-87
2023/01/10 09:34:21;;;;;;;25.73;12.40;;;;;;;11.63;93.50;98020.38;5074684;28;20244;-88
2023/01/10 09:36:47;;;;;;;19.17;11.03;;;;;;;11.68;93.18;98020.03;5074586;28;20163;-87
2023/01/10 09:39:13;;;;;;;18.53;10.40;;;;;;;11.84;92.07;98015.34;5074483;28;20278;-87
2023/01/10 09:42:20;;;;;;;24.13;11.10;;;;;;;11.75;92.52;98012.56;5074805;28;20234;-88
2023/01/10 09:44:53;;;;;;;20.20;11.27;;;;;;;11.81;93.00;97996.34;5073031;28;20505;-88
2023/01/10 09:47:40;;;;;;;30.13;12.70;;;;;;;11.95;91.67;97993.53;5073493;28;20247;-88
2023/01/10 09:50:19;;;;;;;20.63;10.93;;;;;;;11.86;92.84;97994.22;5074574;28;20242;-88
2023/01/10 09:52:52;;;;;;;19.33;9.83;;;;;;;11.66;95.17;97988.66;5073578;28;20196;-88
2023/01/10 09:55:19;;;;;;;24.27;12.20;;;;;;;11.79;95.97;97979.91;5073304;28;20614;-88
2023/01/10 09:57:45;;;;;;;23.63;10.63;;;;;;;12.00;95.36;97978.25;5074473;28;20178;-87
2023/01/10 10:00:19;;;;;;;29.43;12.33;;;;;;;12.27;93.47;97962.97;5073446;28;20168;-87
2023/01/10 10:02:49;;;;;;;20.30;9.60;;;;;;;12.02;95.59;97973.72;5074435;28;20170;-88
2023/01/10 10:05:20;;;;;;;27.37;11.77;;;;;;;12.15;95.88;97961.31;5073087;28;20172;-87
2023/01/10 10:07:52;;;;;;;18.40;8.93;;;;;;;12.05;97.08;97948.06;5073062;28;20180;-88
2023/01/10 10:10:23;;;;;;;19.23;9.43;;;;;;;12.19;95.88;97945.19;5073053;28;20172;-88
2023/01/10 10:13:10;;;;;;;23.70;11.23;;;;;;;12.18;96.52;97947.94;5074105;28;20185;-88
2023/01/10 10:15:42;;;;;;;27.50;11.30;;;;;;;12.15;96.55;97954.28;5072967;28;20177;-88
2023/01/10 10:18:22;;;;;;;18.73;10.57;;;;;;;12.09;97.27;97941.63;5072838;28;20177;-88
2023/01/10 10:20:54;;;;;;;22.60;10.33;;;;;;;12.15;97.38;97933.25;5073644;28;20196;-87
2023/01/10 10:23:41;;;;;;;21.17;10.50;;;;;;;12.38;95.65;97925.34;5074248;28;20192;-88
2023/01/10 10:26:16;;;;;;;23.93;12.10;;;;;;;12.12;95.73;97932.66;5072691;28;20645;-88
2023/01/10 10:29:16;;;;;;;26.93;11.37;;;;;;;12.29;94.19;97925.13;5072648;28;20621;-88
2023/01/10 10:31:51;;;;;;;19.87;10.13;;;;;;;12.55;93.12;97916.97;5072559;28;20200;-87
2023/01/10 10:34:35;;;;;;;23.03;11.30;;;;;;;12.49;92.08;97918.31;5072610;28;20233;-87
2023/01/10 10:37:37;;;;;;;25.00;10.87;;;;;;;12.83;91.12;97905.91;5072475;28;20169;-87
2023/01/10 10:40:06;;;;;;;18.80;10.23;;;;;;;12.83;90.06;97896.25;5061889;28;20571;-88
2023/01/10 10:42:40;;;;;;;18.73;10.47;;;;;;;12.40;92.90;97874.34;5073358;28;20557;-87
2023/01/10 10:45:14;;;;;;;22.60;11.10;;;;;;;12.39;92.58;97867.44;5073364;28;20618;-88
2023/01/10 10:47:48;;;;;;;20.33;10.47;;;;;;;12.48;92.41;97871.09;5073259;28;20372;-88
2023/01/10 10:50:14;;;;;;;21.57;10.00;;;;;;;12.43;92.90;97858.34;5073630;28;20255;-89
2023/01/10 10:52:41;;;;;;;26.47;11.73;;;;;;;12.56;93.07;97850.28;5073179;28;20297;-88
2023/01/10 10:55:13;;;;;;;18.73;10.57;;;;;;;12.86;91.18;97858.34;5071438;28;20200;-88
2023/01/10 10:57:40;;;;;;;22.53;11.53;;;;;;;12.93;91.28;97856.84;5073382;28;20169;-88
2023/01/10 11:00:07;;;;;;;22.00;11.50;;;;;;;13.22;90.06;97857.09;5072208;28;20663;-88
2023/01/10 11:02:45;;;;;;;11.13;5.87;;;;;;;13.04;82.88;97864.72;5055936;28;20582;-87
2023/01/10 11:05:22;;;;;;;14.17;6.77;;;;;;;12.60;79.07;97878.88;5073722;28;20161;-88
2023/01/10 11:07:51;;;;;;;8.23;5.30;;;;;;;12.53;79.27;97879.44;5073686;28;20239;-87
2023/01/10 11:10:35;;;;;;;11.37;5.80;;;;;;;12.36;78.96;97880.81;5072099;28;20188;-88
2023/01/10 11:13:39;;;;;;;7.93;3.87;;;;;;;12.31;78.61;97860.19;5073375;28;20163;-87
2023/01/10 11:16:05;;;;;;;11.20;5.13;;;;;;;12.29;79.87;97846.31;5072732;28;20199;-87
2023/01/10 11:18:31;;;;;;;5.40;2.83;;;;;;;12.16;81.58;97844.78;5071994;28;20182;-87
2023/01/10 11:21:01;;;;;;;7.47;3.67;;;;;;;12.24;83.06;97837.13;5072962;28;20182;-87
2023/01/10 11:23:35;;;;;;;6.23;3.37;;;;;;;12.30;83.32;97826.97;5072013;28;20186;-87
2023/01/10 11:26:02;;;;;;;7.90;3.83;;;;;;;12.43;82.59;97811.03;5071956;28;20646;-87
2023/01/10 11:28:30;;;;;;;8.13;4.53;;;;;;;11.95;81.88;97802.66;5071907;28;20197;-88
2023/01/10 11:30:57;;;;;;;7.30;4.43;;;;;;;11.91;82.47;97803.03;5073635;28;20208;-87
2023/01/10 11:33:29;;;;;;;8.83;5.37;;;;;;;11.98;82.68;97791.09;5073134;28;20174;-87
2023/01/10 11:36:06;;;;;;;10.13;5.53;;;;;;;12.03;83.63;97792.38;5071864;28;20267;-87
2023/01/10 11:38:33;;;;;;;10.53;5.80;;;;;;;11.99;83.29;97793.59;5073093;28;20678;-87
2023/01/10 11:41:03;;;;;;;8.57;4.63;;;;;;;11.88;82.63;97803.28;5073065;28;20181;-87